Time;durP1;ratioP1;P1;durP2;ratioP2;P2;SDS_P1;SDS_P2;PMS_P1;PMS_P2;Temp;Humidity;BMP_temperature;BMP_pressure;BME280_temperature;BME280_humidity;BME280_pressure;Samples;Min_cycle;Max_cycle;Signal;HPM_P1;HPM_P2
2023/02/11 03:25:50;;;;;;;58.88;19.67;;;-4.50;99.90;;;;;;6209384;23;20047;-78
2023/02/11 04:05:27;;;;;;;61.38;17.02;;;-4.70;99.90;;;;;;5921923;24;20010;-77
2023/02/11 04:09:16;;;;;;;61.22;17.92;;;-5.00;99.90;;;;;;5863795;24;20052;-77
2023/02/11 04:12:49;;;;;;;53.47;17.63;;;-4.70;99.90;;;;;;5829539;24;20082;-77
2023/02/11 04:16:49;;;;;;;53.42;17.52;;;-4.80;99.90;;;;;;5762850;24;20080;-77
2023/02/11 04:20:29;;;;;;;57.15;19.70;;;-4.70;99.90;;;;;;5653384;25;20021;-77
2023/02/11 04:23:28;;;;;;;;;;;-5.60;99.90;;;;;;5662281;25;20025;-77
2023/02/11 04:26:56;;;;;;;49.13;15.38;;;-4.80;99.90;;;;;;5685207;25;19946;-77
2023/02/11 04:29:34;;;;;;;56.63;19.35;;;-4.60;99.90;;;;;;5657900;25;20038;-77
2023/02/11 04:32:48;;;;;;;63.25;18.88;;;-4.70;99.90;;;;;;5673462;25;20102;-77
2023/02/11 04:36:35;;;;;;;62.40;19.00;;;-4.70;99.90;;;;;;5637141;25;20068;-77
2023/02/11 04:40:06;;;;;;;57.03;19.30;;;-5.70;99.90;;;;;;5531360;25;20081;-76
2023/02/11 04:42:54;;;;;;;60.05;18.80;;;-4.70;99.90;;;;;;5521831;25;20040;-76
2023/02/11 04:45:55;;;;;;;57.72;20.38;;;-4.70;99.90;;;;;;5490820;26;20052;-76
2023/02/11 04:48:24;;;;;;;55.70;20.85;;;-5.00;99.90;;;;;;5559368;25;20050;-77
2023/02/11 04:52:00;;;;;;;61.53;20.13;;;-4.70;99.90;;;;;;5593345;25;20035;-77
2023/02/11 04:55:25;;;;;;;48.40;17.30;;;-5.10;99.90;;;;;;5627698;25;20034;-78
2023/02/11 04:58:40;;;;;;;48.33;19.48;;;-5.00;99.90;;;;;;5632242;25;20031;-78
2023/02/11 05:02:03;;;;;;;63.40;19.90;;;-5.00;99.90;;;;;;5639259;25;20033;-78
2023/02/11 05:04:36;;;;;;;52.75;17.80;;;-4.80;99.90;;;;;;5605251;25;20031;-78
2023/02/11 05:08:02;;;;;;;55.20;19.67;;;-4.20;99.90;;;;;;5619842;25;20063;-78
2023/02/11 05:10:36;;;;;;;52.30;17.73;;;-4.90;99.90;;;;;;5651229;25;20026;-78
2023/02/11 05:13:38;;;;;;;58.72;20.40;;;-4.90;99.90;;;;;;5597250;25;20022;-78
2023/02/11 05:16:37;;;;;;;61.13;21.15;;;-5.20;99.90;;;;;;5601204;25;20380;-78
2023/02/11 05:19:14;;;;;;;61.88;19.25;;;-5.00;99.90;;;;;;5652534;25;20031;-78
2023/02/11 05:22:02;;;;;;;61.30;19.58;;;-5.00;99.90;;;;;;5633581;24;20032;-78
2023/02/11 05:24:33;;;;;;;68.78;23.70;;;-4.80;99.90;;;;;;5782372;24;20023;-78
2023/02/11 05:27:02;;;;;;;63.58;22.88;;;-5.30;99.90;;;;;;5780785;24;20431;-79
2023/02/11 05:29:32;;;;;;;79.43;24.25;;;-4.90;99.90;;;;;;5797259;24;20019;-79
2023/02/11 05:32:00;;;;;;;73.38;24.48;;;-4.10;99.90;;;;;;5833734;24;20043;-78
2023/02/11 05:34:50;;;;;;;74.97;25.05;;;-5.30;99.90;;;;;;5803556;24;20023;-78
2023/02/11 05:37:18;;;;;;;84.57;26.48;;;-5.00;99.90;;;;;;5868148;24;20049;-78
2023/02/11 05:40:16;;;;;;;80.68;27.67;;;-5.10;99.90;;;;;;6016098;23;20083;-77
2023/02/11 05:46:24;;;;;;;95.38;32.20;;;-5.30;99.90;;;;;;5963642;23;20527;-79
2023/02/11 05:48:52;;;;;;;80.80;27.02;;;-5.00;99.90;;;;;;5998749;23;20087;-79
2023/02/11 05:51:20;;;;;;;135.50;40.30;;;-5.00;99.90;;;;;;5975932;23;20020;-78
2023/02/11 05:53:48;;;;;;;186.77;48.88;;;-5.10;99.90;;;;;;5973825;23;20066;-78
2023/02/11 05:56:16;;;;;;;124.05;39.63;;;-5.20;99.90;;;;;;5994466;23;20026;-78
2023/02/11 05:58:46;;;;;;;104.53;34.80;;;-5.10;99.90;;;;;;5996255;23;20061;-78
2023/02/11 06:01:14;;;;;;;119.82;35.88;;;-5.10;99.90;;;;;;5975311;23;20453;-78
2023/02/11 06:03:42;;;;;;;125.32;40.22;;;-5.10;99.90;;;;;;6030443;23;20018;-78
2023/02/11 06:06:11;;;;;;;113.45;36.92;;;-5.00;99.90;;;;;;6031320;23;20027;-78
2023/02/11 06:08:39;;;;;;;107.30;36.75;;;-5.30;99.90;;;;;;6029910;23;20019;-78
2023/02/11 06:11:07;;;;;;;109.68;37.40;;;-5.10;99.90;;;;;;6032992;23;20034;-78
2023/02/11 06:13:35;;;;;;;82.15;30.42;;;-5.10;99.90;;;;;;6045887;23;20097;-78
2023/02/11 06:16:03;;;;;;;103.05;31.20;;;-5.20;99.90;;;;;;6090033;23;20450;-78
2023/02/11 06:18:32;;;;;;;83.80;30.08;;;-5.00;99.90;;;;;;6091115;23;20045;-78
2023/02/11 06:21:00;;;;;;;83.85;30.20;;;-5.10;99.90;;;;;;6089017;23;20026;-78
2023/02/11 06:23:28;;;;;;;98.03;32.47;;;-5.20;99.90;;;;;;6090005;23;20005;-78
2023/02/11 06:26:03;;;;;;;115.18;36.22;;;-5.10;99.90;;;;;;6114595;23;20054;-79
2023/02/11 06:28:32;;;;;;;105.50;34.22;;;-4.60;99.90;;;;;;6079329;23;20018;-79
2023/02/11 06:31:10;;;;;;;106.85;32.80;;;-4.90;99.90;;;;;;6091729;23;20014;-79
2023/02/11 06:33:38;;;;;;;87.32;31.48;;;-4.80;99.90;;;;;;6092965;23;20049;-78
2023/02/11 06:36:18;;;;;;;91.35;29.58;;;-4.90;99.90;;;;;;6087408;23;20101;-78
2023/02/11 06:38:46;;;;;;;81.88;28.02;;;-4.20;99.90;;;;;;6064304;23;20019;-78
2023/02/11 06:42:31;;;;;;;76.20;28.98;;;-4.60;99.90;;;;;;6020335;23;20055;-78
2023/02/11 06:45:09;;;;;;;62.88;23.58;;;-4.90;99.90;;;;;;5912439;24;20025;-78
2023/02/11 06:48:08;;;;;;;64.57;23.80;;;-4.60;99.90;;;;;;5870140;24;20026;-78
2023/02/11 06:51:23;;;;;;;70.05;21.75;;;-4.50;99.90;;;;;;5868286;24;20029;-77
2023/02/11 06:58:55;;;;;;;72.05;21.45;;;-4.50;99.90;;;;;;5757302;25;20036;-78
2023/02/11 07:03:21;;;;;;;59.33;20.38;;;-4.20;99.90;;;;;;5720104;25;20035;-78
2023/02/11 07:07:12;;;;;;;51.72;17.67;;;-4.10;99.90;;;;;;5607504;25;20035;-78
2023/02/11 07:10:49;;;;;;;52.58;19.40;;;-3.90;99.90;;;;;;5633065;25;20089;-77
2023/02/11 07:17:48;;;;;;;59.53;18.05;;;-3.80;99.90;;;;;;5673989;25;20121;-77
2023/02/11 07:21:19;;;;;;;49.92;17.42;;;-3.80;99.90;;;;;;5650746;25;20041;-77
2023/02/11 07:25:14;;;;;;;48.80;14.23;;;-3.90;99.90;;;;;;5649099;25;20053;-78
2023/02/11 07:29:47;;;;;;;51.83;16.75;;;-3.70;99.90;;;;;;5742553;24;20090;-77
2023/02/11 07:33:23;;;;;;;56.20;16.87;;;-4.00;99.90;;;;;;5758369;25;20438;-77
2023/02/11 07:37:09;;;;;;;49.67;17.63;;;-4.60;99.90;;;;;;5710796;25;20037;-78
2023/02/11 07:40:27;;;;;;;54.65;19.27;;;-4.60;99.90;;;;;;5648229;25;20020;-78
2023/02/11 07:43:06;;;;;;;48.83;16.40;;;-3.40;99.90;;;;;;5696970;25;20021;-78
2023/02/11 07:45:44;;;;;;;58.20;18.95;;;-3.30;99.90;;;;;;5714017;25;20020;-78
2023/02/11 07:48:50;;;;;;;55.67;19.42;;;-3.20;99.90;;;;;;5726521;24;20096;-77
2023/02/11 07:51:44;;;;;;;49.22;17.50;;;-3.30;99.90;;;;;;5709774;25;20112;-77
2023/02/11 07:54:44;;;;;;;52.47;18.70;;;-3.10;99.90;;;;;;5682416;25;20085;-77
2023/02/11 07:57:40;;;;;;;56.80;19.15;;;-3.00;99.90;;;;;;5678722;25;20041;-77
2023/02/11 08:00:38;;;;;;;50.20;19.42;;;-2.10;99.90;;;;;;5662202;25;20021;-77
2023/02/11 08:03:43;;;;;;;62.05;20.40;;;-2.60;99.90;;;;;;5701040;25;20044;-77
2023/02/11 08:07:19;;;;;;;55.45;20.35;;;-2.50;99.90;;;;;;5681237;25;20096;-76
2023/02/11 08:09:49;;;;;;;56.88;19.63;;;-2.50;99.90;;;;;;5676654;25;20029;-76
2023/02/11 08:12:16;;;;;;;59.38;20.00;;;-2.30;99.90;;;;;;5705501;25;20179;-76
2023/02/11 08:14:44;;;;;;;67.60;20.92;;;-2.20;99.90;;;;;;5699942;25;20033;-78
2023/02/11 08:17:11;;;;;;;67.63;23.38;;;-2.10;99.90;;;;;;5703882;25;20103;-78
2023/02/11 08:19:39;;;;;;;61.22;22.48;;;-1.80;99.90;;;;;;5704917;25;20124;-78
2023/02/11 08:22:06;;;;;;;65.15;20.77;;;-2.00;99.90;;;;;;5707142;25;20025;-78
2023/02/11 08:24:34;;;;;;;66.13;22.98;;;-1.90;99.90;;;;;;5750552;24;20024;-78
2023/02/11 08:27:01;;;;;;;64.60;23.75;;;-1.80;99.90;;;;;;5772074;24;20039;-77
2023/02/11 08:29:29;;;;;;;67.22;24.77;;;-1.70;99.90;;;;;;5844136;24;20025;-77
2023/02/11 08:31:57;;;;;;;72.00;23.02;;;-1.70;99.90;;;;;;5878490;24;20057;-77
2023/02/11 08:34:24;;;;;;;53.28;21.38;;;-1.50;99.90;;;;;;5906461;24;20030;-77
2023/02/11 08:36:52;;;;;;;56.85;20.83;;;-2.00;99.90;;;;;;5906048;24;20084;-77
2023/02/11 08:39:21;;;;;;;53.92;19.70;;;-1.30;99.90;;;;;;5987961;23;20026;-77
2023/02/11 08:41:51;;;;;;;56.75;21.83;;;-1.10;99.90;;;;;;6021971;23;20112;-76
2023/02/11 08:44:20;;;;;;;58.92;21.42;;;-1.20;99.90;;;;;;6079177;23;20430;-77
2023/02/11 08:46:48;;;;;;;63.35;21.50;;;-1.10;99.90;;;;;;6081008;23;20053;-77
2023/02/11 08:49:16;;;;;;;59.70;21.13;;;-1.10;99.90;;;;;;6105998;23;20041;-77
2023/02/11 08:51:45;;;;;;;54.78;19.83;;;-1.10;99.90;;;;;;6108749;23;20018;-77
2023/02/11 08:54:14;;;;;;;59.30;21.92;;;-1.20;99.90;;;;;;6084723;23;20018;-76
2023/02/11 08:56:41;;;;;;;340.25;88.53;;;-1.00;99.90;;;;;;6083084;23;20026;-76
2023/02/11 08:59:13;;;;;;;255.93;88.90;;;-1.10;99.90;;;;;;6116803;23;20022;-76
2023/02/11 09:01:42;;;;;;;85.17;33.57;;;-0.90;99.90;;;;;;6093313;23;20018;-76
2023/02/11 09:04:10;;;;;;;57.70;22.70;;;-0.90;99.90;;;;;;6144592;23;20312;-76
2023/02/11 09:06:38;;;;;;;57.15;20.98;;;-0.90;99.90;;;;;;6091993;23;20046;-76
2023/02/11 09:09:09;;;;;;;62.17;22.08;;;-0.80;99.90;;;;;;6091735;23;20085;-76
2023/02/11 09:11:37;;;;;;;48.72;21.65;;;-0.80;99.90;;;;;;6093217;23;20042;-76
2023/02/11 09:14:04;;;;;;;87.25;32.97;;;-0.60;99.90;;;;;;6092816;23;20018;-76
2023/02/11 09:16:34;;;;;;;76.88;27.05;;;-0.50;99.90;;;;;;6142473;23;20066;-76
2023/02/11 09:19:04;;;;;;;58.92;21.27;;;-1.20;99.90;;;;;;6091742;23;20014;-76
2023/02/11 09:21:31;;;;;;;63.15;24.05;;;-0.70;99.90;;;;;;6094664;23;20030;-76
2023/02/11 09:23:59;;;;;;;67.63;27.50;;;-0.60;99.90;;;;;;6096299;23;20049;-76
2023/02/11 09:26:30;;;;;;;56.67;21.55;;;-0.40;99.90;;;;;;6094823;23;20025;-76
2023/02/11 09:29:01;;;;;;;73.82;26.33;;;-0.40;99.90;;;;;;6096767;23;20022;-76
2023/02/11 09:31:35;;;;;;;67.40;27.60;;;-0.30;99.90;;;;;;6096006;23;20022;-76
2023/02/11 09:34:05;;;;;;;55.00;21.23;;;-0.40;99.90;;;;;;6119454;23;20016;-76
2023/02/11 09:36:37;;;;;;;59.80;22.70;;;-0.40;99.90;;;;;;6119388;23;20411;-76
2023/02/11 09:39:08;;;;;;;53.55;19.00;;;-0.10;99.90;;;;;;6119117;23;20010;-76
2023/02/11 09:42:09;;;;;;;48.10;18.83;;;0.10;99.90;;;;;;6119389;23;20018;-76
2023/02/11 09:44:38;;;;;;;50.85;18.90;;;0.40;99.90;;;;;;6097245;23;20036;-76
2023/02/11 09:47:24;;;;;;;49.67;19.00;;;0.60;99.90;;;;;;6096737;23;20085;-76
2023/02/11 09:50:03;;;;;;;58.80;22.95;;;0.90;99.90;;;;;;6118846;23;20048;-76
2023/02/11 09:52:45;;;;;;;60.42;24.23;;;1.10;99.90;;;;;;6093918;23;20394;-76
2023/02/11 09:55:23;;;;;;;47.80;18.55;;;2.20;99.90;;;;;;6092140;23;20029;-76
2023/02/11 09:57:51;;;;;;;58.42;24.85;;;1.80;97.80;;;;;;6092973;23;20022;-77
2023/02/11 10:00:26;;;;;;;49.35;19.52;;;2.00;95.50;;;;;;6096786;23;20081;-76
2023/02/11 10:03:04;;;;;;;40.28;15.18;;;1.80;93.30;;;;;;6116240;23;20097;-76
2023/02/11 10:05:52;;;;;;;47.22;19.13;;;2.10;92.60;;;;;;6099903;23;20014;-76
2023/02/11 10:08:56;;;;;;;47.35;18.25;;;2.30;92.30;;;;;;6095205;23;20014;-76
2023/02/11 10:11:55;;;;;;;76.35;30.35;;;2.50;92.60;;;;;;6122243;23;20018;-76
2023/02/11 10:14:44;;;;;;;67.15;29.38;;;2.50;91.60;;;;;;6117341;23;20017;-76
2023/02/11 10:17:34;;;;;;;57.38;23.75;;;2.30;91.60;;;;;;6117775;23;20014;-76
2023/02/11 10:20:34;;;;;;;56.35;25.58;;;2.50;91.20;;;;;;6094460;23;20117;-76
2023/02/11 10:23:24;;;;;;;49.10;19.08;;;2.50;91.60;;;;;;6088784;23;20022;-75
2023/02/11 10:25:55;;;;;;;55.92;20.60;;;2.40;92.00;;;;;;6062502;23;20007;-76
2023/02/11 10:32:46;;;;;;;54.75;20.70;;;2.40;92.70;;;;;;6200709;22;20056;-81
2023/02/11 10:38:31;;;;;;;56.28;21.02;;;2.30;93.30;;;;;;6246368;22;20028;-81
2023/02/11 10:40:59;;;;;;;45.83;19.20;;;2.20;93.60;;;;;;6238322;22;20015;-81
2023/02/11 10:43:45;;;;;;;45.80;17.63;;;2.20;93.70;;;;;;5053813;27;20424;-82
2023/02/11 10:46:22;;;;;;;47.15;20.13;;;2.20;94.40;;;;;;5045657;28;20055;-81
2023/02/11 10:48:52;;;;;;;53.75;21.05;;;2.30;94.60;;;;;;5032959;28;20054;-81
2023/02/11 10:51:21;;;;;;;61.65;21.13;;;2.40;94.60;;;;;;5062870;28;20740;-82
2023/02/11 10:54:13;;;;;;;53.83;20.65;;;2.50;94.80;;;;;;5034311;28;22218;-82
2023/02/11 10:56:45;;;;;;;53.55;20.90;;;2.80;94.60;;;;;;5037694;28;20188;-79
2023/02/11 10:59:38;;;;;;;53.45;23.05;;;2.80;93.70;;;;;;5055270;28;20544;-80
2023/02/11 11:02:30;;;;;;;51.15;20.48;;;2.80;93.50;;;;;;5032871;28;20455;-79
2023/02/11 11:05:02;;;;;;;44.35;17.30;;;2.80;93.40;;;;;;5052654;28;20054;-80
2023/02/11 11:07:32;;;;;;;45.08;17.30;;;2.70;93.20;;;;;;5032403;28;20040;-80
2023/02/11 11:10:01;;;;;;;52.33;21.15;;;2.70;93.00;;;;;;5048265;28;20047;-80
2023/02/11 11:12:44;;;;;;;42.63;19.40;;;2.80;93.50;;;;;;5033333;28;20537;-79
2023/02/11 11:15:27;;;;;;;46.10;18.17;;;2.80;93.30;;;;;;5034464;28;20055;-81
2023/02/11 11:18:13;;;;;;;;;;;2.80;93.10;;;;;;5023056;28;20063;-80
2023/02/11 11:21:00;;;;;;;52.72;17.80;;;2.90;92.80;;;;;;4999922;28;20446;-80
2023/02/11 11:23:29;;;;;;;62.00;22.88;;;3.20;92.70;;;;;;5024434;28;20170;-80
2023/02/11 11:26:04;;;;;;;40.10;17.35;;;3.20;92.30;;;;;;5069614;28;20734;-80
2023/02/11 11:28:49;;;;;;;50.17;20.90;;;3.20;92.20;;;;;;5049931;28;20080;-80
2023/02/11 11:31:22;;;;;;;58.22;21.08;;;3.20;91.70;;;;;;5040130;28;20052;-80
2023/02/11 11:33:53;;;;;;;59.47;22.50;;;3.50;91.50;;;;;;5044044;28;20048;-80
2023/02/11 11:36:41;;;;;;;50.53;20.25;;;3.60;91.40;;;;;;5078117;28;20096;-81
2023/02/11 11:39:25;;;;;;;51.35;20.70;;;3.00;90.20;;;;;;5050015;28;20060;-80
2023/02/11 11:41:58;;;;;;;39.25;16.20;;;3.50;90.20;;;;;;5003768;28;20059;-80
2023/02/11 11:44:33;;;;;;;35.60;14.75;;;3.30;89.40;;;;;;5030511;28;20830;-79
2023/02/11 11:47:19;;;;;;;48.30;18.40;;;3.30;90.00;;;;;;5010487;28;20054;-80
2023/02/11 11:50:05;;;;;;;51.90;17.67;;;3.30;90.00;;;;;;5031263;28;20087;-80
2023/02/11 11:53:10;;;;;;;46.22;16.38;;;3.50;90.80;;;;;;5012025;28;20490;-79
2023/02/11 11:55:41;;;;;;;37.33;15.50;;;3.80;89.70;;;;;;5001445;28;20048;-80
2023/02/11 11:58:21;;;;;;;37.65;15.45;;;4.10;88.10;;;;;;5023493;28;20063;-80
2023/02/11 12:00:57;;;;;;;37.03;15.25;;;4.20;88.10;;;;;;4994340;28;20536;-79
2023/02/11 12:03:47;;;;;;;25.48;10.75;;;4.30;88.20;;;;;;5017395;28;20049;-78
2023/02/11 12:06:41;;;;;;;35.85;15.38;;;4.10;87.60;;;;;;5031794;28;20529;-79
2023/02/11 12:09:27;;;;;;;38.58;16.23;;;4.20;88.00;;;;;;5024764;28;20056;-80
2023/02/11 12:12:13;;;;;;;41.97;18.95;;;4.20;88.00;;;;;;5029838;28;20060;-81
2023/02/11 12:14:46;;;;;;;40.17;15.65;;;4.20;87.80;;;;;;4983876;28;20144;-79
2023/02/11 12:17:57;;;;;;;41.88;16.92;;;4.30;88.00;;;;;;5042461;28;20084;-79
2023/02/11 12:20:52;;;;;;;39.17;16.17;;;4.50;88.20;;;;;;4993503;28;20056;-81
2023/02/11 12:23:54;;;;;;;45.33;18.15;;;4.50;87.80;;;;;;4995861;28;20045;-79
2023/02/11 12:26:25;;;;;;;50.58;21.02;;;4.70;88.40;;;;;;5020015;28;20509;-79
2023/02/11 12:29:16;;;;;;;43.55;19.48;;;4.80;87.50;;;;;;5029022;28;20048;-79
2023/02/11 12:32:06;;;;;;;34.78;15.82;;;5.00;87.70;;;;;;5011556;28;20175;-79
2023/02/11 12:34:40;;;;;;;44.42;18.23;;;5.10;87.90;;;;;;5027204;28;20064;-79
2023/02/11 12:37:19;;;;;;;40.38;16.45;;;5.10;87.70;;;;;;5029538;28;20124;-79
2023/02/11 12:40:16;;;;;;;43.53;19.40;;;5.10;87.90;;;;;;5013449;28;20053;-80
2023/02/11 12:43:17;;;;;;;37.17;17.83;;;5.30;87.70;;;;;;4974618;28;20143;-80
2023/02/11 12:46:14;;;;;;;40.90;17.75;;;5.20;87.40;;;;;;5032819;28;20053;-79
2023/02/11 12:48:58;;;;;;;37.83;15.32;;;5.00;87.00;;;;;;4992420;28;20609;-80
2023/02/11 12:51:35;;;;;;;42.80;15.80;;;5.10;87.50;;;;;;5002626;28;23370;-80
2023/02/11 12:54:19;;;;;;;41.55;18.42;;;5.10;87.20;;;;;;4997925;28;20056;-80
2023/02/11 12:57:06;;;;;;;39.05;15.85;;;5.40;87.50;;;;;;5005109;28;20461;-79
2023/02/11 12:59:46;;;;;;;42.25;17.17;;;5.60;86.00;;;;;;4991848;28;20116;-79
2023/02/11 13:02:37;;;;;;;44.03;17.50;;;5.70;83.40;;;;;;5005290;28;20052;-79
2023/02/11 13:05:32;;;;;;;43.72;19.98;;;5.80;82.30;;;;;;4985807;28;20052;-79
2023/02/11 13:08:24;;;;;;;105.13;39.42;;;5.80;80.30;;;;;;4995300;28;20048;-79
2023/02/11 13:10:58;;;;;;;42.90;16.08;;;5.60;78.70;;;;;;4968610;28;20053;-80
2023/02/11 13:13:36;;;;;;;34.55;14.25;;;5.50;79.90;;;;;;4967900;28;20718;-79
2023/02/11 13:16:06;;;;;;;43.20;17.17;;;5.40;80.80;;;;;;5015423;28;21056;-79
2023/02/11 13:18:50;;;;;;;60.72;24.70;;;5.30;81.90;;;;;;4988137;28;20056;-79
2023/02/11 13:21:36;;;;;;;105.88;51.75;;;5.20;81.50;;;;;;4981696;28;20079;-80
2023/02/11 13:24:25;;;;;;;73.53;38.15;;;5.10;81.60;;;;;;5011319;28;20053;-79
2023/02/11 13:27:11;;;;;;;62.92;29.02;;;5.30;81.10;;;;;;5010820;28;20048;-79
2023/02/11 13:30:10;;;;;;;114.43;52.38;;;5.40;80.70;;;;;;4989368;28;20051;-80
2023/02/11 13:32:54;;;;;;;52.33;25.75;;;5.40;79.70;;;;;;4998577;28;20057;-79
2023/02/11 13:35:35;;;;;;;86.32;34.28;;;5.60;79.90;;;;;;5010788;28;20131;-78
2023/02/11 13:38:17;;;;;;;46.20;19.60;;;5.70;78.10;;;;;;5003486;28;20056;-79
2023/02/11 13:41:00;;;;;;;245.52;79.82;;;5.70;78.30;;;;;;5004418;28;20048;-79
2023/02/11 13:43:29;;;;;;;52.77;20.73;;;5.80;76.90;;;;;;5034156;28;20053;-79
2023/02/11 13:46:03;;;;;;;55.55;24.30;;;5.80;77.40;;;;;;5007287;28;20051;-80
2023/02/11 13:48:36;;;;;;;31.85;13.55;;;5.70;76.50;;;;;;4990683;28;20041;-80
2023/02/11 13:51:13;;;;;;;32.60;13.95;;;5.70;76.80;;;;;;5014304;28;20041;-79
2023/02/11 13:53:51;;;;;;;48.30;20.10;;;5.60;76.80;;;;;;4985957;28;20060;-79
2023/02/11 13:56:35;;;;;;;97.03;33.90;;;5.60;76.50;;;;;;5007452;28;20448;-80
2023/02/11 13:59:26;;;;;;;63.97;24.20;;;5.60;75.80;;;;;;5004605;28;20053;-80
2023/02/11 14:11:01;;;;;;;40.20;18.58;;;5.20;78.00;;;;;;4989172;28;20033;-80
2023/02/11 14:13:33;;;;;;;46.22;21.35;;;5.10;78.90;;;;;;5013372;28;20474;-79
2023/02/11 14:16:13;;;;;;;54.22;21.42;;;5.10;78.90;;;;;;4999289;28;20052;-79
2023/02/11 14:18:46;;;;;;;39.10;16.15;;;4.90;79.70;;;;;;5006561;28;20049;-80
2023/02/11 14:21:32;;;;;;;42.25;17.40;;;4.90;79.50;;;;;;5002010;28;20057;-78
2023/02/11 14:24:03;;;;;;;37.53;15.68;;;4.80;79.50;;;;;;4995500;28;20140;-79
2023/02/11 14:26:46;;;;;;;42.15;15.90;;;4.70;79.70;;;;;;4999834;28;20088;-80
2023/02/11 14:29:37;;;;;;;34.08;14.10;;;4.60;79.60;;;;;;5005226;28;20133;-79
2023/02/11 14:32:16;;;;;;;35.17;14.73;;;4.60;79.70;;;;;;4989143;28;20568;-79
2023/02/11 14:35:11;;;;;;;54.35;19.35;;;4.50;79.80;;;;;;5010900;28;20942;-79
2023/02/11 14:38:10;;;;;;;52.63;21.90;;;4.50;79.60;;;;;;5014894;28;20185;-79
2023/02/11 14:41:01;;;;;;;48.00;20.25;;;4.50;79.60;;;;;;5000903;28;20049;-79
2023/02/11 14:43:37;;;;;;;48.13;21.93;;;4.50;79.60;;;;;;4983705;28;20183;-80
2023/02/11 14:46:05;;;;;;;40.10;17.52;;;4.60;79.40;;;;;;4994374;28;20302;-79
2023/02/11 14:48:35;;;;;;;40.67;16.58;;;4.60;79.50;;;;;;5025737;28;20494;-79
2023/02/11 14:51:12;;;;;;;36.28;15.13;;;4.70;79.40;;;;;;5015834;28;23098;-79
2023/02/11 14:53:46;;;;;;;42.40;16.33;;;4.70;79.60;;;;;;4999804;28;20052;-80
2023/02/11 14:56:25;;;;;;;36.10;14.77;;;4.70;79.50;;;;;;5010717;28;20053;-79
2023/02/11 14:58:54;;;;;;;56.25;29.13;;;4.70;80.00;;;;;;5008538;28;20061;-79
2023/02/11 15:01:32;;;;;;;54.70;24.85;;;4.60;79.90;;;;;;5009391;28;20092;-80
2023/02/11 15:04:04;;;;;;;45.58;20.60;;;4.60;80.10;;;;;;5003656;28;20056;-79
2023/02/11 15:06:35;;;;;;;45.97;19.00;;;4.60;80.00;;;;;;5007575;28;22356;-79
2023/02/11 15:09:31;;;;;;;36.17;16.92;;;4.70;79.50;;;;;;5011931;28;20398;-79
2023/02/11 15:11:59;;;;;;;38.63;14.38;;;4.70;78.70;;;;;;5017053;28;20048;-79
2023/02/11 15:14:29;;;;;;;35.25;13.93;;;4.70;78.50;;;;;;5042763;28;22696;-80
2023/02/11 15:17:04;;;;;;;30.30;11.38;;;4.80;77.50;;;;;;5042097;28;20132;-79
2023/02/11 15:19:43;;;;;;;27.98;12.27;;;4.90;75.10;;;;;;4973350;28;20061;-79
2023/02/11 15:22:25;;;;;;;27.55;9.60;;;4.90;73.20;;;;;;5026498;28;22536;-78
2023/02/11 15:25:07;;;;;;;28.20;9.17;;;4.90;72.20;;;;;;5037729;28;20045;-79
2023/02/11 15:27:43;;;;;;;28.52;10.52;;;5.20;70.40;;;;;;5020456;28;20298;-79
2023/02/11 15:30:20;;;;;;;23.25;8.38;;;5.10;70.30;;;;;;4986657;28;20200;-77
2023/02/11 15:32:57;;;;;;;24.70;10.52;;;5.30;70.30;;;;;;5008825;28;20053;-79
2023/02/11 15:35:37;;;;;;;25.48;11.90;;;5.30;70.30;;;;;;5008470;28;20496;-77
2023/02/11 15:38:07;;;;;;;26.55;11.95;;;5.20;70.60;;;;;;4996733;28;20075;-76
2023/02/11 15:40:36;;;;;;;28.67;10.43;;;5.30;70.30;;;;;;5017161;28;21321;-80
2023/02/11 15:43:07;;;;;;;30.67;11.40;;;5.20;70.50;;;;;;5013846;28;20064;-79
2023/02/11 15:45:38;;;;;;;24.58;10.10;;;5.10;71.20;;;;;;4947072;28;20057;-79
2023/02/11 15:48:35;;;;;;;26.10;9.20;;;5.10;71.20;;;;;;4976655;28;20669;-79
2023/02/11 15:51:18;;;;;;;28.38;8.95;;;5.00;71.80;;;;;;4979804;28;20709;-80
2023/02/11 15:53:55;;;;;;;29.75;11.63;;;5.00;72.30;;;;;;4980816;28;20061;-80
2023/02/11 15:56:42;;;;;;;32.35;12.35;;;4.80;73.00;;;;;;4991732;28;20052;-79
2023/02/11 15:59:17;;;;;;;40.15;17.55;;;4.70;74.30;;;;;;5021527;28;20436;-79
2023/02/11 16:01:46;;;;;;;42.22;15.07;;;4.40;76.20;;;;;;5003949;28;20061;-80
2023/02/11 16:04:20;;;;;;;48.15;18.90;;;4.30;77.20;;;;;;4991421;28;21889;-80
2023/02/11 16:06:50;;;;;;;52.03;19.20;;;4.20;77.70;;;;;;4954640;28;20972;-80
2023/02/11 16:09:18;;;;;;;93.15;35.30;;;4.10;78.20;;;;;;4997221;28;22895;-80
2023/02/11 16:11:46;;;;;;;83.20;31.15;;;4.00;79.00;;;;;;4996876;28;20053;-80
2023/02/11 16:14:29;;;;;;;65.22;24.45;;;3.90;79.40;;;;;;4959656;28;20193;-80
2023/02/11 16:17:23;;;;;;;74.25;26.98;;;3.80;79.60;;;;;;4934260;28;20054;-80
2023/02/11 16:19:51;;;;;;;;;;;3.60;80.30;;;;;;4973043;28;20107;-80
2023/02/11 16:22:27;;;;;;;59.88;23.90;;;3.50;81.20;;;;;;4974076;28;19930;-80
2023/02/11 16:24:59;;;;;;;50.38;21.42;;;3.40;81.10;;;;;;4958026;28;20050;-80
2023/02/11 16:27:39;;;;;;;44.63;19.52;;;3.40;81.70;;;;;;4943865;28;20256;-80
2023/02/11 16:30:25;;;;;;;96.40;34.70;;;3.40;81.80;;;;;;4982716;28;20977;-79
2023/02/11 16:32:53;;;;;;;109.70;42.53;;;3.30;82.10;;;;;;4935521;28;22369;-82
2023/02/11 16:35:23;;;;;;;98.43;37.92;;;3.30;82.40;;;;;;4946936;28;20141;-79
2023/02/11 16:37:54;;;;;;;79.53;32.75;;;3.20;82.90;;;;;;4964404;28;20805;-79
2023/02/11 16:40:22;;;;;;;77.63;32.75;;;3.20;83.40;;;;;;5002784;28;20092;-79
2023/02/11 16:42:52;;;;;;;76.15;29.45;;;3.20;83.40;;;;;;4968073;28;20114;-79
2023/02/11 16:45:20;;;;;;;98.35;44.33;;;3.10;83.40;;;;;;4997946;28;20053;-80
2023/02/11 16:47:49;;;;;;;75.88;33.00;;;3.10;83.50;;;;;;4981041;28;20063;-79
2023/02/11 16:50:23;;;;;;;102.88;41.40;;;3.10;83.90;;;;;;4981888;28;20049;-79
2023/02/11 16:52:51;;;;;;;73.18;27.20;;;3.10;83.80;;;;;;4981599;28;20053;-80
2023/02/11 16:55:19;;;;;;;140.52;56.95;;;3.00;83.60;;;;;;4982051;28;20059;-79
2023/02/11 16:57:48;;;;;;;456.38;176.45;;;3.10;83.90;;;;;;4998971;28;20140;-80
2023/02/11 17:00:17;;;;;;;71.72;29.88;;;3.00;84.00;;;;;;5013769;28;20052;-80
2023/02/11 17:02:45;;;;;;;514.75;229.50;;;3.00;83.90;;;;;;4963880;28;22328;-80
2023/02/11 17:05:21;;;;;;;119.47;52.15;;;2.90;84.40;;;;;;4991868;28;20056;-80
2023/02/11 17:07:50;;;;;;;78.15;33.20;;;2.80;85.10;;;;;;4996264;28;20048;-80
2023/02/11 17:10:20;;;;;;;95.53;42.67;;;2.90;84.70;;;;;;5030233;28;20441;-80
2023/02/11 17:12:52;;;;;;;61.63;26.42;;;3.00;84.50;;;;;;5021921;28;20048;-80
2023/02/11 17:15:21;;;;;;;56.33;26.20;;;2.90;84.80;;;;;;5037337;28;20064;-80
2023/02/11 17:17:49;;;;;;;61.17;25.25;;;3.00;84.50;;;;;;5021903;28;20056;-80
2023/02/11 17:20:17;;;;;;;44.92;19.02;;;3.00;84.50;;;;;;5044012;28;20048;-80
2023/02/11 17:22:45;;;;;;;44.65;17.85;;;2.90;84.60;;;;;;5000102;28;20606;-80
2023/02/11 17:25:15;;;;;;;47.45;20.10;;;2.90;85.00;;;;;;5006618;28;20068;-80
2023/02/11 17:27:45;;;;;;;128.80;42.13;;;2.80;85.20;;;;;;5018370;28;20604;-80
2023/02/11 17:30:13;;;;;;;82.97;31.73;;;2.80;85.90;;;;;;5018918;28;20059;-80
2023/02/11 17:32:41;;;;;;;55.05;23.58;;;2.70;85.80;;;;;;4999782;28;20542;-80
2023/02/11 17:35:09;;;;;;;49.30;22.48;;;2.70;85.80;;;;;;4984415;28;20055;-80
2023/02/11 17:37:38;;;;;;;56.50;21.75;;;2.70;85.70;;;;;;4985690;28;20049;-80
2023/02/11 17:40:08;;;;;;;51.10;19.98;;;2.70;85.90;;;;;;4985941;28;20923;-80
2023/02/11 17:42:40;;;;;;;55.75;20.40;;;2.60;86.10;;;;;;4993828;28;20061;-80
2023/02/11 17:45:09;;;;;;;53.03;21.80;;;2.60;86.30;;;;;;4984032;28;20048;-80
2023/02/11 17:47:37;;;;;;;57.78;22.50;;;2.60;87.50;;;;;;4989635;28;20521;-80
2023/02/11 17:50:07;;;;;;;63.42;24.88;;;2.60;87.10;;;;;;5019043;28;20735;-80
2023/02/11 17:52:36;;;;;;;55.83;24.40;;;2.50;87.20;;;;;;5031183;28;20147;-80
2023/02/11 17:55:05;;;;;;;76.10;30.95;;;2.50;87.60;;;;;;5029391;28;20056;-80
2023/02/11 17:57:33;;;;;;;58.95;23.73;;;2.50;87.70;;;;;;5000990;28;21402;-81
2023/02/11 18:00:01;;;;;;;57.00;24.17;;;2.50;88.10;;;;;;5002033;28;20454;-80
2023/02/11 18:02:38;;;;;;;50.28;20.05;;;2.50;88.20;;;;;;5018727;28;20184;-80
2023/02/11 18:05:07;;;;;;;69.97;25.45;;;2.60;88.10;;;;;;5002946;28;20157;-80
2023/02/11 18:07:35;;;;;;;67.20;27.00;;;2.50;88.00;;;;;;5014898;28;20088;-81
2023/02/11 18:10:05;;;;;;;55.67;24.02;;;2.50;88.40;;;;;;5014404;28;20128;-81
2023/02/11 18:12:33;;;;;;;57.97;26.00;;;2.50;88.70;;;;;;5014731;28;20055;-81
2023/02/11 18:15:01;;;;;;;75.85;28.83;;;2.50;89.00;;;;;;5004234;28;20791;-80
2023/02/11 18:17:32;;;;;;;67.75;26.13;;;2.50;89.10;;;;;;4996688;28;20053;-80
2023/02/11 18:20:02;;;;;;;67.75;27.20;;;2.50;89.10;;;;;;5019468;28;20160;-80